createdAt,value
2022-09-10T00:00:21.178Z,15.53
2022-09-10T00:01:20.766Z,15.50
2022-09-10T00:02:20.757Z,15.49
2022-09-10T00:03:20.734Z,15.47
2022-09-10T00:04:20.721Z,15.44
2022-09-10T00:05:20.706Z,15.43
2022-09-10T00:06:21.186Z,15.39
2022-09-10T00:07:20.795Z,15.38
2022-09-10T00:08:20.665Z,15.36
2022-09-10T00:09:20.655Z,15.34
2022-09-10T00:10:20.642Z,15.31
2022-09-10T00:11:20.995Z,15.29
2022-09-10T00:12:20.627Z,15.28
2022-09-10T00:13:20.599Z,15.23
2022-09-10T00:14:20.590Z,15.23
2022-09-10T00:15:20.582Z,15.20
2022-09-10T00:16:21.034Z,15.17
2022-09-10T00:17:20.547Z,15.14
2022-09-10T00:18:20.528Z,15.16
2022-09-10T00:19:20.516Z,15.16
2022-09-10T00:20:20.516Z,15.11
2022-09-10T00:21:20.916Z,15.10
2022-09-10T00:22:20.496Z,15.09
2022-09-10T00:23:20.469Z,15.06
2022-09-10T00:24:20.465Z,15.06
2022-09-10T00:25:20.434Z,15.01
2022-09-10T00:26:20.774Z,14.99
2022-09-10T00:27:20.415Z,14.96
2022-09-10T00:28:20.395Z,14.92
2022-09-10T00:29:20.381Z,14.91
2022-09-10T00:30:20.373Z,14.91
2022-09-10T00:31:20.727Z,14.89
2022-09-10T00:32:20.350Z,14.88
2022-09-10T00:33:20.332Z,14.86
2022-09-10T00:34:20.313Z,14.86
2022-09-10T00:35:20.304Z,14.84
2022-09-10T00:36:20.720Z,14.84
2022-09-10T00:37:20.284Z,14.83
2022-09-10T00:38:20.262Z,14.83
2022-09-10T00:39:20.253Z,14.80
2022-09-10T00:40:20.243Z,14.78
2022-09-10T00:41:20.643Z,14.77
2022-09-10T00:42:20.218Z,14.75
2022-09-10T00:43:20.195Z,14.73
2022-09-10T00:44:20.185Z,14.73
2022-09-10T00:45:20.168Z,14.73
2022-09-10T00:46:20.535Z,14.73
2022-09-10T00:47:20.146Z,14.72
2022-09-10T00:48:20.140Z,14.70
2022-09-10T00:49:20.120Z,14.70
2022-09-10T00:50:20.118Z,14.70
2022-09-10T00:51:20.530Z,14.68
2022-09-10T00:52:20.079Z,14.65
2022-09-10T00:53:20.068Z,14.65
2022-09-10T00:54:20.056Z,14.65
2022-09-10T00:55:20.040Z,14.64
2022-09-10T00:56:20.460Z,14.62
2022-09-10T00:57:20.018Z,14.61
2022-09-10T00:58:20.003Z,14.61
2022-09-10T00:59:19.988Z,14.62
2022-09-10T01:00:19.979Z,14.61
2022-09-10T01:01:20.387Z,14.62
2022-09-10T01:02:19.963Z,14.60
2022-09-10T01:03:24.875Z,14.58
2022-09-10T01:04:20.926Z,14.58
2022-09-10T01:05:19.907Z,14.58
2022-09-10T01:06:20.247Z,14.58
2022-09-10T01:07:19.880Z,14.58
2022-09-10T01:08:19.873Z,14.58
2022-09-10T01:09:19.867Z,14.58
2022-09-10T01:10:19.838Z,14.58
2022-09-10T01:11:20.150Z,14.57
2022-09-10T01:12:19.815Z,14.57
2022-09-10T01:13:19.815Z,14.57
2022-09-10T01:14:19.786Z,14.57
2022-09-10T01:15:19.775Z,14.57
2022-09-10T01:16:20.267Z,14.58
2022-09-10T01:17:19.764Z,14.58
2022-09-10T01:18:19.736Z,14.57
2022-09-10T01:19:19.726Z,14.58
2022-09-10T01:20:19.707Z,14.57
2022-09-10T01:21:20.129Z,14.55
2022-09-10T01:22:19.695Z,14.55
2022-09-10T01:23:19.682Z,14.54
2022-09-10T01:24:19.663Z,14.52
2022-09-10T01:25:19.653Z,14.52
2022-09-10T01:26:20.005Z,14.51
2022-09-10T01:27:19.623Z,14.50
2022-09-10T01:28:19.614Z,14.51
2022-09-10T01:29:19.584Z,14.50
2022-09-10T01:30:19.585Z,14.47
2022-09-10T01:31:19.992Z,14.50
2022-09-10T01:32:19.554Z,14.50
2022-09-10T01:33:19.544Z,14.47
2022-09-10T01:34:19.533Z,14.50
2022-09-10T01:35:19.520Z,14.51
2022-09-10T01:36:19.922Z,14.52
2022-09-10T01:37:19.490Z,14.52
2022-09-10T01:38:19.482Z,14.54
2022-09-10T01:39:19.467Z,14.52
2022-09-10T01:40:19.461Z,14.52
2022-09-10T01:41:19.861Z,14.52
2022-09-10T01:42:19.429Z,14.52
2022-09-10T01:43:19.414Z,14.54
2022-09-10T01:44:19.411Z,14.54
2022-09-10T01:45:19.406Z,14.55
2022-09-10T01:46:19.811Z,14.55
2022-09-10T01:47:19.371Z,14.55
2022-09-10T01:48:19.354Z,14.57
2022-09-10T01:49:19.346Z,14.55
2022-09-10T01:50:19.322Z,14.57
2022-09-10T01:51:19.681Z,14.55
2022-09-10T01:52:19.299Z,14.55
2022-09-10T01:53:19.283Z,14.55
2022-09-10T01:54:19.271Z,14.57
2022-09-10T01:55:19.260Z,14.57
2022-09-10T01:56:19.569Z,14.58
2022-09-10T01:57:19.237Z,14.58
2022-09-10T01:58:19.230Z,14.60
2022-09-10T01:59:19.198Z,14.62
2022-09-10T02:00:19.194Z,14.65
2022-09-10T02:01:19.672Z,14.70
2022-09-10T02:02:19.202Z,14.73
2022-09-10T02:03:19.151Z,14.75
2022-09-10T02:04:19.137Z,14.77
2022-09-10T02:05:19.119Z,14.80
2022-09-10T02:06:19.117Z,14.77
2022-09-10T02:07:19.530Z,14.77
2022-09-10T02:08:19.097Z,14.78
2022-09-10T02:09:19.069Z,14.77
2022-09-10T02:10:19.058Z,14.70
2022-09-10T02:11:19.047Z,14.69
2022-09-10T02:12:19.447Z,14.68
2022-09-10T02:13:19.017Z,14.65
2022-09-10T02:14:19.007Z,14.64
2022-09-10T02:15:18.995Z,14.62
2022-09-10T02:16:19.008Z,14.60
2022-09-10T02:17:19.328Z,14.57
2022-09-10T02:18:18.959Z,14.55
2022-09-10T02:19:18.942Z,14.52
2022-09-10T02:20:18.925Z,14.50
2022-09-10T02:21:18.915Z,14.47
2022-09-10T02:22:19.129Z,14.46
2022-09-10T02:23:18.888Z,14.46
2022-09-10T02:24:18.920Z,14.45
2022-09-10T02:25:18.865Z,14.43
2022-09-10T02:26:18.845Z,14.42
2022-09-10T02:27:19.086Z,14.43
2022-09-10T02:28:18.822Z,14.43
2022-09-10T02:29:18.815Z,14.42
2022-09-10T02:30:18.804Z,14.42
2022-09-10T02:31:18.844Z,14.40
2022-09-10T02:32:19.175Z,14.40
2022-09-10T02:33:18.764Z,14.39
2022-09-10T02:34:18.743Z,14.36
2022-09-10T02:35:18.745Z,14.35
2022-09-10T02:36:18.753Z,14.36
2022-09-10T02:37:19.083Z,14.36
2022-09-10T02:38:18.706Z,14.36
2022-09-10T02:39:18.688Z,14.37
2022-09-10T02:40:18.669Z,14.39
2022-09-10T02:41:18.659Z,14.39
2022-09-10T02:42:18.962Z,14.37
2022-09-10T02:43:18.623Z,14.39
2022-09-10T02:44:18.611Z,14.39
2022-09-10T02:45:18.610Z,14.40
2022-09-10T02:46:18.582Z,14.39
2022-09-10T02:47:19.009Z,14.39
2022-09-10T02:48:18.555Z,14.39
2022-09-10T02:49:18.542Z,14.39
2022-09-10T02:50:18.532Z,14.37
2022-09-10T02:51:18.516Z,14.33
2022-09-10T02:52:19.117Z,14.33
2022-09-10T02:53:18.501Z,14.33
2022-09-10T02:54:18.479Z,14.35
2022-09-10T02:55:18.468Z,14.33
2022-09-10T02:56:18.464Z,14.33
2022-09-10T02:57:18.937Z,14.33
2022-09-10T02:58:18.432Z,14.33
2022-09-10T02:59:18.419Z,14.35
2022-09-10T03:00:18.399Z,14.36
2022-09-10T03:01:18.450Z,14.39
2022-09-10T03:02:18.821Z,14.40
2022-09-10T03:03:18.356Z,14.42
2022-09-10T03:04:18.341Z,14.40
2022-09-10T03:05:18.448Z,14.42
2022-09-10T03:06:18.307Z,14.40
2022-09-10T03:07:18.659Z,14.42
2022-09-10T03:08:18.294Z,14.42
2022-09-10T03:09:18.283Z,14.40
2022-09-10T03:10:18.257Z,14.40
2022-09-10T03:11:18.247Z,14.39
2022-09-10T03:12:18.753Z,14.39
2022-09-10T03:13:18.235Z,14.39
2022-09-10T03:14:18.206Z,14.39
2022-09-10T03:15:18.195Z,14.39
2022-09-10T03:16:18.198Z,14.36
2022-09-10T03:17:18.703Z,14.36
2022-09-10T03:18:18.165Z,14.32
2022-09-10T03:19:18.138Z,14.33
2022-09-10T03:20:18.130Z,14.32
2022-09-10T03:21:18.115Z,14.29
2022-09-10T03:22:18.510Z,14.28
2022-09-10T03:23:18.084Z,14.27
2022-09-10T03:24:18.075Z,14.25
2022-09-10T03:25:18.074Z,14.25
2022-09-10T03:26:18.044Z,14.25
2022-09-10T03:27:18.383Z,14.22
2022-09-10T03:28:18.041Z,14.21
2022-09-10T03:29:18.004Z,14.22
2022-09-10T03:30:18.004Z,14.20
2022-09-10T03:31:18.013Z,14.18
2022-09-10T03:32:18.404Z,14.17
2022-09-10T03:33:17.967Z,14.17
2022-09-10T03:34:17.961Z,14.18
2022-09-10T03:35:17.944Z,14.17
2022-09-10T03:36:17.929Z,14.17
2022-09-10T03:37:18.343Z,14.17
2022-09-10T03:38:17.894Z,14.17
2022-09-10T03:39:17.901Z,14.17
2022-09-10T03:40:17.874Z,14.15
2022-09-10T03:41:17.864Z,14.17
2022-09-10T03:42:18.271Z,14.17
2022-09-10T03:43:17.850Z,14.15
2022-09-10T03:44:17.823Z,14.17
2022-09-10T03:45:17.826Z,14.18
2022-09-10T03:46:17.791Z,14.18
2022-09-10T03:47:18.153Z,14.18
2022-09-10T03:48:17.771Z,14.21
2022-09-10T03:49:17.764Z,14.21
2022-09-10T03:50:17.745Z,14.20
2022-09-10T03:51:17.739Z,14.20
2022-09-10T03:52:18.110Z,14.20
2022-09-10T03:53:17.720Z,14.18
2022-09-10T03:54:17.729Z,14.18
2022-09-10T03:55:17.689Z,14.18
2022-09-10T03:56:17.685Z,14.20
2022-09-10T03:57:18.029Z,14.20
2022-09-10T03:58:17.648Z,14.17
2022-09-10T03:59:17.652Z,14.15
2022-09-10T04:00:17.617Z,14.15
2022-09-10T04:01:17.670Z,14.15
2022-09-10T04:02:17.664Z,14.17
2022-09-10T04:03:18.019Z,14.15
2022-09-10T04:04:17.565Z,14.15
2022-09-10T04:05:17.556Z,14.14
2022-09-10T04:06:17.551Z,14.14
2022-09-10T04:07:17.525Z,14.14
2022-09-10T04:08:17.907Z,14.15
2022-09-10T04:09:17.497Z,14.14
2022-09-10T04:10:17.487Z,14.14
2022-09-10T04:11:17.484Z,14.12
2022-09-10T04:12:17.455Z,14.12
2022-09-10T04:13:17.875Z,14.14
2022-09-10T04:14:17.430Z,14.10
2022-09-10T04:15:17.428Z,14.12
2022-09-10T04:16:17.454Z,14.12
2022-09-10T04:17:17.395Z,14.14
2022-09-10T04:18:17.697Z,14.14
2022-09-10T04:19:17.373Z,14.15
2022-09-10T04:20:17.358Z,14.15
2022-09-10T04:21:17.348Z,14.14
2022-09-10T04:22:17.334Z,14.15
2022-09-10T04:23:17.635Z,14.15
2022-09-10T04:24:17.315Z,14.15
2022-09-10T04:25:17.295Z,14.14
2022-09-10T04:26:17.290Z,14.15
2022-09-10T04:27:17.263Z,14.15
2022-09-10T04:28:17.676Z,14.12
2022-09-10T04:29:17.255Z,14.12
2022-09-10T04:30:17.227Z,14.12
2022-09-10T04:31:17.268Z,14.10
2022-09-10T04:32:17.203Z,14.10
2022-09-10T04:33:17.561Z,14.10
2022-09-10T04:34:17.171Z,14.10
2022-09-10T04:35:17.182Z,14.09
2022-09-10T04:36:17.160Z,14.10
2022-09-10T04:37:19.340Z,14.09
2022-09-10T04:38:17.345Z,14.09
2022-09-10T04:39:17.111Z,14.09
2022-09-10T04:40:17.113Z,14.09
2022-09-10T04:41:17.090Z,14.07
2022-09-10T04:42:17.092Z,14.07
2022-09-10T04:43:17.289Z,14.09
2022-09-10T04:44:17.042Z,14.10
2022-09-10T04:45:17.030Z,14.12
2022-09-10T04:46:17.026Z,14.14
2022-09-10T04:47:17.012Z,14.14
2022-09-10T04:48:17.220Z,14.15
2022-09-10T04:49:16.998Z,14.12
2022-09-10T04:50:16.960Z,14.10
2022-09-10T04:51:17.735Z,14.09
2022-09-10T04:52:16.939Z,14.09
2022-09-10T04:53:17.241Z,14.10
2022-09-10T04:54:16.909Z,14.12
2022-09-10T04:55:16.929Z,14.14
2022-09-10T04:56:16.892Z,14.14
2022-09-10T04:57:16.883Z,14.12
2022-09-10T04:58:17.089Z,14.10
2022-09-10T04:59:16.849Z,14.12
2022-09-10T05:00:16.835Z,14.12
2022-09-10T05:01:16.899Z,14.14
2022-09-10T05:02:16.868Z,14.15
2022-09-10T05:03:17.126Z,14.15
2022-09-10T05:04:16.779Z,14.15
2022-09-10T05:05:16.773Z,14.18
2022-09-10T05:06:16.754Z,14.18
2022-09-10T05:07:16.757Z,14.20
2022-09-10T05:08:17.063Z,14.21
2022-09-10T05:09:16.720Z,14.21
2022-09-10T05:10:16.697Z,14.21
2022-09-10T05:11:16.697Z,14.22
2022-09-10T05:12:16.695Z,14.24
2022-09-10T05:13:16.665Z,14.24
2022-09-10T05:14:17.041Z,14.25
2022-09-10T05:15:16.645Z,14.27
2022-09-10T05:16:16.656Z,14.27
2022-09-10T05:17:16.629Z,14.27
2022-09-10T05:18:16.618Z,14.28
2022-09-10T05:19:17.106Z,14.27
2022-09-10T05:20:16.584Z,14.28
2022-09-10T05:21:16.612Z,14.25
2022-09-10T05:22:16.565Z,14.27
2022-09-10T05:23:16.546Z,14.27
2022-09-10T05:24:16.926Z,14.28
2022-09-10T05:25:16.522Z,14.29
2022-09-10T05:26:16.505Z,14.33
2022-09-10T05:27:16.516Z,14.35
2022-09-10T05:28:16.495Z,14.36
2022-09-10T05:29:16.924Z,14.37
2022-09-10T05:30:16.456Z,14.40
2022-09-10T05:31:16.484Z,14.43
2022-09-10T05:32:16.429Z,14.45
2022-09-10T05:33:16.419Z,14.47
2022-09-10T05:34:17.001Z,14.47
2022-09-10T05:35:16.383Z,14.50
2022-09-10T05:36:16.382Z,14.51
2022-09-10T05:37:16.372Z,14.52
2022-09-10T05:38:16.350Z,14.57
2022-09-10T05:39:16.862Z,14.57
2022-09-10T05:40:16.333Z,14.60
2022-09-10T05:41:16.323Z,14.62
2022-09-10T05:42:16.299Z,14.62
2022-09-10T05:43:16.291Z,14.62
2022-09-10T05:44:16.645Z,14.62
2022-09-10T05:45:16.256Z,14.61
2022-09-10T05:46:16.239Z,14.65
2022-09-10T05:47:16.242Z,14.69
2022-09-10T05:48:16.221Z,14.70
2022-09-10T05:49:16.639Z,14.73
2022-09-10T05:50:16.196Z,14.77
2022-09-10T05:51:16.191Z,14.77
2022-09-10T05:52:16.170Z,14.77
2022-09-10T05:53:16.165Z,14.80
2022-09-10T05:54:16.575Z,14.81
2022-09-10T05:55:16.127Z,14.83
2022-09-10T05:56:16.118Z,14.89
2022-09-10T05:57:16.336Z,14.91
2022-09-10T05:58:16.088Z,14.92
2022-09-10T05:59:16.467Z,14.92
2022-09-10T06:00:16.077Z,14.92
2022-09-10T06:01:16.134Z,14.94
2022-09-10T06:02:16.823Z,14.92
2022-09-10T06:03:16.035Z,14.91
2022-09-10T06:04:16.464Z,14.89
2022-09-10T06:05:16.002Z,14.89
2022-09-10T06:06:15.986Z,14.88
2022-09-10T06:07:15.970Z,14.89
2022-09-10T06:08:15.958Z,14.91
2022-09-10T06:09:16.315Z,14.94
2022-09-10T06:10:15.926Z,14.95
2022-09-10T06:11:15.915Z,14.98
2022-09-10T06:12:15.914Z,14.99
2022-09-10T06:13:15.895Z,15.01
2022-09-10T06:14:16.310Z,15.03
2022-09-10T06:15:15.876Z,15.06
2022-09-10T06:16:15.894Z,15.06
2022-09-10T06:17:15.832Z,15.07
2022-09-10T06:18:15.814Z,15.11
2022-09-10T06:19:16.214Z,15.14
2022-09-10T06:20:15.837Z,15.16
2022-09-10T06:21:15.777Z,15.17
2022-09-10T06:22:15.773Z,15.21
2022-09-10T06:23:15.764Z,15.23
2022-09-10T06:24:16.164Z,15.25
2022-09-10T06:25:15.729Z,15.21
2022-09-10T06:26:15.714Z,15.21
2022-09-10T06:27:15.701Z,15.25
2022-09-10T06:28:15.683Z,15.27
2022-09-10T06:29:16.032Z,15.23
2022-09-10T06:30:15.666Z,15.21
2022-09-10T06:31:15.652Z,15.25
2022-09-10T06:32:15.636Z,15.25
2022-09-10T06:33:15.642Z,15.27
2022-09-10T06:34:16.033Z,15.28
2022-09-10T06:35:15.584Z,15.27
2022-09-10T06:36:15.584Z,15.27
2022-09-10T06:37:15.563Z,15.21
2022-09-10T06:38:15.553Z,15.23
2022-09-10T06:39:15.980Z,15.25
2022-09-10T06:40:15.532Z,15.25
2022-09-10T06:41:15.502Z,15.27
2022-09-10T06:42:15.514Z,15.28
2022-09-10T06:43:15.484Z,15.27
2022-09-10T06:44:15.907Z,15.28
2022-09-10T06:45:15.457Z,15.31
2022-09-10T06:46:50.967Z,15.29
2022-09-10T06:48:32.347Z,15.29
2022-09-10T06:48:38.273Z,15.31
2022-09-10T06:49:16.800Z,15.35
2022-09-10T06:50:15.400Z,15.39
2022-09-10T06:51:15.381Z,15.39
2022-09-10T06:52:15.373Z,15.43
2022-09-10T06:53:15.353Z,15.44
2022-09-10T06:54:15.354Z,15.46
2022-09-10T06:55:15.669Z,15.47
2022-09-10T06:56:15.315Z,15.47
2022-09-10T06:57:15.309Z,15.50
2022-09-10T06:58:15.289Z,15.51
2022-09-10T06:59:15.278Z,15.56
2022-09-10T07:00:15.619Z,15.60
2022-09-10T07:01:15.316Z,15.65
2022-09-10T07:02:15.317Z,15.67
2022-09-10T07:03:15.222Z,15.68
2022-09-10T07:04:15.208Z,15.74
2022-09-10T07:05:15.638Z,15.76
2022-09-10T07:06:15.188Z,15.83
2022-09-10T07:07:15.190Z,15.92
2022-09-10T07:08:15.149Z,15.92
2022-09-10T07:09:15.156Z,15.97
2022-09-10T07:10:15.207Z,16.04
2022-09-10T07:11:15.179Z,16.07
2022-09-10T07:12:15.099Z,16.14
2022-09-10T07:13:15.087Z,16.20
2022-09-10T07:14:15.077Z,16.25
2022-09-10T07:15:15.433Z,16.27
2022-09-10T07:16:15.097Z,16.33
2022-09-10T07:17:15.048Z,16.34
2022-09-10T07:18:15.057Z,16.39
2022-09-10T07:19:15.086Z,16.43
2022-09-10T07:20:15.444Z,16.49
2022-09-10T07:21:14.996Z,16.52
2022-09-10T07:22:14.988Z,16.52
2022-09-10T07:23:15.066Z,16.52
2022-09-10T07:24:15.170Z,16.52
2022-09-10T07:25:15.354Z,16.58
2022-09-10T07:26:14.936Z,16.67
2022-09-10T07:27:14.915Z,16.78
2022-09-10T07:28:14.895Z,16.81
2022-09-10T07:29:14.896Z,16.85
2022-09-10T07:30:14.874Z,16.94
2022-09-10T07:31:15.424Z,17.06
2022-09-10T07:32:14.865Z,17.16
2022-09-10T07:33:14.846Z,17.23
2022-09-10T07:34:14.825Z,17.30
2022-09-10T07:35:15.253Z,17.33
2022-09-10T07:36:14.843Z,17.36
2022-09-10T07:37:14.774Z,17.44
2022-09-10T07:38:14.778Z,17.55
2022-09-10T07:39:14.751Z,17.70
2022-09-10T07:40:14.889Z,17.75
2022-09-10T07:41:15.045Z,17.86
2022-09-10T07:42:14.714Z,17.99
2022-09-10T07:43:14.714Z,17.96
2022-09-10T07:44:14.734Z,18.12
2022-09-10T07:45:15.013Z,18.23
2022-09-10T07:46:14.684Z,18.54
2022-09-10T07:47:14.644Z,18.84
2022-09-10T07:48:14.646Z,19.21
2022-09-10T07:49:14.633Z,19.86
2022-09-10T07:50:14.628Z,19.87
2022-09-10T07:51:14.628Z,19.68
2022-09-10T07:52:14.594Z,19.54
2022-09-10T07:53:14.583Z,19.54
2022-09-10T07:54:14.574Z,19.54
2022-09-10T07:55:14.861Z,19.40
2022-09-10T07:56:14.576Z,19.18
2022-09-10T07:57:14.521Z,19.07
2022-09-10T07:58:14.525Z,18.98
2022-09-10T07:59:14.494Z,18.90
2022-09-10T08:00:14.511Z,18.80
2022-09-10T08:01:14.927Z,18.69
2022-09-10T08:02:14.511Z,18.63
2022-09-10T08:03:14.455Z,18.52
2022-09-10T08:04:14.449Z,18.42
2022-09-10T08:05:14.774Z,18.41
2022-09-10T08:06:14.414Z,18.42
2022-09-10T08:07:14.393Z,18.33
2022-09-10T08:08:14.383Z,18.32
2022-09-10T08:09:14.383Z,18.29
2022-09-10T08:10:14.363Z,18.30
2022-09-10T08:11:14.802Z,18.33
2022-09-10T08:12:14.422Z,18.32
2022-09-10T08:13:14.464Z,18.30
2022-09-10T08:14:14.323Z,18.12
2022-09-10T08:15:14.382Z,18.10
2022-09-10T08:16:14.325Z,18.14
2022-09-10T08:17:14.272Z,18.12
2022-09-10T08:18:14.257Z,18.17
2022-09-10T08:19:14.251Z,18.25
2022-09-10T08:20:14.243Z,18.29
2022-09-10T08:21:14.661Z,18.36
2022-09-10T08:22:14.230Z,18.39
2022-09-10T08:23:14.199Z,18.45
2022-09-10T08:24:14.182Z,18.45
2022-09-10T08:25:14.613Z,18.47
2022-09-10T08:26:14.154Z,18.52
2022-09-10T08:27:14.159Z,18.63
2022-09-10T08:28:14.144Z,18.72
2022-09-10T08:29:14.107Z,18.78
2022-09-10T08:30:14.105Z,18.78
2022-09-10T08:31:14.572Z,18.81
2022-09-10T08:32:14.090Z,18.95
2022-09-10T08:33:14.060Z,18.98
2022-09-10T08:34:14.079Z,19.08
2022-09-10T08:35:14.486Z,19.04
2022-09-10T08:36:14.023Z,19.00
2022-09-10T08:37:14.015Z,19.10
2022-09-10T08:38:14.001Z,19.13
2022-09-10T08:39:13.980Z,19.11
2022-09-10T08:40:14.470Z,19.26
2022-09-10T08:41:13.959Z,19.40
2022-09-10T08:42:13.960Z,19.46
2022-09-10T08:43:13.940Z,19.44
2022-09-10T08:44:13.939Z,19.54
2022-09-10T08:45:14.354Z,19.51
2022-09-10T08:46:13.960Z,19.59
2022-09-10T08:47:13.899Z,19.63
2022-09-10T08:48:13.879Z,19.62
2022-09-10T08:49:13.869Z,19.68
2022-09-10T08:50:14.216Z,19.62
2022-09-10T08:51:13.859Z,19.91
2022-09-10T08:52:13.819Z,20.14
2022-09-10T08:53:13.809Z,20.23
2022-09-10T08:54:13.801Z,20.35
2022-09-10T08:55:14.099Z,20.43
2022-09-10T08:56:13.773Z,20.72
2022-09-10T08:57:13.758Z,20.88
2022-09-10T08:58:13.758Z,20.97
2022-09-10T08:59:13.729Z,20.98
2022-09-10T09:00:13.744Z,21.13
2022-09-10T09:01:14.139Z,21.25
2022-09-10T09:02:26.262Z,21.35
2022-09-10T09:03:14.699Z,21.58
2022-09-10T09:04:13.678Z,21.65
2022-09-10T09:05:13.989Z,21.47
2022-09-10T09:06:13.639Z,21.37
2022-09-10T09:07:13.638Z,21.21
2022-09-10T09:08:13.622Z,21.22
2022-09-10T09:09:15.621Z,21.37
2022-09-10T09:10:13.693Z,21.49
2022-09-10T09:11:14.011Z,21.42
2022-09-10T09:12:13.580Z,21.47
2022-09-10T09:13:13.586Z,21.65
2022-09-10T09:14:13.602Z,21.79
2022-09-10T09:15:13.988Z,21.86
2022-09-10T09:16:13.561Z,21.94
2022-09-10T09:17:13.498Z,21.94
2022-09-10T09:18:13.495Z,21.92
2022-09-10T09:19:13.496Z,21.92
2022-09-10T09:20:13.477Z,21.80
2022-09-10T09:21:13.830Z,21.83
2022-09-10T09:22:13.449Z,21.92
2022-09-10T09:23:13.440Z,21.84
2022-09-10T09:24:14.081Z,21.90
2022-09-10T09:25:13.849Z,21.82
2022-09-10T09:26:13.389Z,21.88
2022-09-10T09:27:13.378Z,22.02
2022-09-10T09:28:13.360Z,22.21
2022-09-10T09:29:13.359Z,22.25
2022-09-10T09:30:13.340Z,22.15
2022-09-10T09:31:13.763Z,22.15
2022-09-10T09:32:13.319Z,22.15
2022-09-10T09:33:13.300Z,22.09
2022-09-10T09:34:13.289Z,22.05
2022-09-10T09:35:13.598Z,22.00
2022-09-10T09:36:13.265Z,21.94
2022-09-10T09:37:13.257Z,21.90
2022-09-10T09:38:13.245Z,21.88
2022-09-10T09:39:13.237Z,21.83
2022-09-10T09:40:13.344Z,21.74
2022-09-10T09:41:13.628Z,21.42
2022-09-10T09:42:13.198Z,21.27
2022-09-10T09:43:13.196Z,21.29
2022-09-10T09:44:13.169Z,21.22
2022-09-10T09:45:13.200Z,21.31
2022-09-10T09:46:13.176Z,21.46
2022-09-10T09:47:13.136Z,21.69
2022-09-10T09:48:13.108Z,21.61
2022-09-10T09:49:13.101Z,21.65
2022-09-10T09:50:13.084Z,21.80
2022-09-10T09:51:13.606Z,21.90
2022-09-10T09:52:13.058Z,21.98
2022-09-10T09:53:13.051Z,22.00
2022-09-10T09:54:46.448Z,22.02
2022-09-10T09:55:15.736Z,21.82
2022-09-10T09:56:13.008Z,21.77
2022-09-10T09:57:12.988Z,21.25
2022-09-10T09:58:13.017Z,21.13
2022-09-10T09:59:15.062Z,21.14
2022-09-10T10:00:12.964Z,21.21
2022-09-10T10:01:13.425Z,21.17
2022-09-10T10:02:12.971Z,21.09
2022-09-10T10:03:12.929Z,21.14
2022-09-10T10:04:12.907Z,21.03
2022-09-10T10:05:13.673Z,21.01
2022-09-10T10:06:12.898Z,21.06
2022-09-10T10:07:12.878Z,21.14
2022-09-10T10:08:12.858Z,21.25
2022-09-10T10:09:12.838Z,21.31
2022-09-10T10:10:12.860Z,21.38
2022-09-10T10:11:13.271Z,21.38
2022-09-10T10:12:12.813Z,21.37
2022-09-10T10:13:12.845Z,21.50
2022-09-10T10:14:12.831Z,21.61
2022-09-10T10:15:13.152Z,21.54
2022-09-10T10:16:12.810Z,21.56
2022-09-10T10:17:12.785Z,21.49
2022-09-10T10:18:12.732Z,21.42
2022-09-10T10:19:12.709Z,21.61
2022-09-10T10:20:12.710Z,21.67
2022-09-10T10:21:13.090Z,21.59
2022-09-10T10:22:12.686Z,21.65
2022-09-10T10:23:12.666Z,21.84
2022-09-10T10:24:12.657Z,21.83
2022-09-10T10:25:12.671Z,21.91
2022-09-10T10:26:12.657Z,21.86
2022-09-10T10:27:12.612Z,22.06
2022-09-10T10:28:12.604Z,22.25
2022-09-10T10:29:12.608Z,22.36
2022-09-10T10:30:12.579Z,22.21
2022-09-10T10:31:12.945Z,21.99
2022-09-10T10:32:12.639Z,22.07
2022-09-10T10:33:12.529Z,22.17
2022-09-10T10:34:12.530Z,22.30
2022-09-10T10:35:12.558Z,22.20
2022-09-10T10:36:12.498Z,22.25
2022-09-10T10:37:12.489Z,22.33
2022-09-10T10:38:12.475Z,22.35
2022-09-10T10:39:12.458Z,22.43
2022-09-10T10:40:12.477Z,22.52
2022-09-10T10:41:12.890Z,22.45
2022-09-10T10:42:12.450Z,22.36
2022-09-10T10:43:12.588Z,22.33
2022-09-10T10:44:12.395Z,22.43
2022-09-10T10:45:12.727Z,22.45
2022-09-10T10:46:12.414Z,22.37
2022-09-10T10:47:12.438Z,22.40
2022-09-10T10:48:12.350Z,22.49
2022-09-10T10:49:12.357Z,22.49
2022-09-10T10:50:12.490Z,22.30
2022-09-10T10:51:12.678Z,22.10
2022-09-10T10:52:12.297Z,22.12
2022-09-10T10:53:12.305Z,22.20
2022-09-10T10:54:12.273Z,22.30
2022-09-10T10:55:12.328Z,22.45
2022-09-10T10:56:12.259Z,22.47
2022-09-10T10:57:12.237Z,22.60
2022-09-10T10:58:12.219Z,22.54
2022-09-10T10:59:12.208Z,22.42
2022-09-10T11:00:12.273Z,22.45
2022-09-10T11:01:12.218Z,22.39
2022-09-10T11:02:12.306Z,22.40
2022-09-10T11:03:12.168Z,22.37
2022-09-10T11:04:12.146Z,22.36
2022-09-10T11:05:12.158Z,22.07
2022-09-10T11:06:12.124Z,22.15
2022-09-10T11:07:12.106Z,22.27
2022-09-10T11:08:12.097Z,22.60
2022-09-10T11:09:12.078Z,22.90
2022-09-10T11:10:12.447Z,23.17
2022-09-10T11:11:12.070Z,23.43
2022-09-10T11:12:12.038Z,23.40
2022-09-10T11:13:12.156Z,23.43
2022-09-10T11:14:12.011Z,23.22
2022-09-10T11:15:12.038Z,22.97
2022-09-10T11:16:12.031Z,22.77
2022-09-10T11:17:11.988Z,22.73
2022-09-10T11:18:11.967Z,22.77
2022-09-10T11:19:11.960Z,22.72
2022-09-10T11:20:27.800Z,22.62
2022-09-10T11:21:12.935Z,22.45
2022-09-10T11:22:11.908Z,22.36
2022-09-10T11:23:11.897Z,22.09
2022-09-10T11:24:16.347Z,22.14
2022-09-10T11:25:13.421Z,22.22
2022-09-10T11:26:11.868Z,22.37
2022-09-10T11:27:11.857Z,22.31
2022-09-10T11:28:11.828Z,22.12
2022-09-10T11:29:11.832Z,22.17
2022-09-10T11:30:11.807Z,22.14
2022-09-10T11:31:12.044Z,22.31
2022-09-10T11:32:11.810Z,22.35
2022-09-10T11:33:11.798Z,22.28
2022-09-10T11:34:11.839Z,22.22
2022-09-10T11:35:12.197Z,22.21
2022-09-10T11:36:11.736Z,22.17
2022-09-10T11:37:11.769Z,22.18
2022-09-10T11:38:11.788Z,22.20
2022-09-10T11:39:11.698Z,22.02
2022-09-10T11:40:11.743Z,22.10
2022-09-10T11:41:11.703Z,22.24
2022-09-10T11:42:11.908Z,22.25
2022-09-10T11:43:11.649Z,22.24
2022-09-10T11:44:11.627Z,22.14
2022-09-10T11:45:11.933Z,22.12
2022-09-10T11:46:11.669Z,22.17
2022-09-10T11:47:11.603Z,22.03
2022-09-10T11:48:11.597Z,21.92
2022-09-10T11:49:11.585Z,21.53
2022-09-10T11:50:11.555Z,21.49
2022-09-10T11:51:11.997Z,21.35
2022-09-10T11:52:11.526Z,21.32
2022-09-10T11:53:11.534Z,21.13
2022-09-10T11:54:11.507Z,20.98
2022-09-10T11:55:11.884Z,20.91
2022-09-10T11:56:11.497Z,20.88
2022-09-10T11:57:11.510Z,21.01
2022-09-10T11:58:11.467Z,21.16
2022-09-10T11:59:11.448Z,21.31
2022-09-10T12:00:11.465Z,21.40
2022-09-10T12:01:11.424Z,21.43
2022-09-10T12:02:11.481Z,21.50
2022-09-10T12:03:11.430Z,21.59
2022-09-10T12:04:11.386Z,21.47
2022-09-10T12:05:11.799Z,21.62
2022-09-10T12:06:11.674Z,21.72
2022-09-10T12:07:11.348Z,21.75
2022-09-10T12:08:11.346Z,21.77
2022-09-10T12:09:11.336Z,21.83
2022-09-10T12:10:14.334Z,21.88
2022-09-10T12:11:11.605Z,21.71
2022-09-10T12:12:11.287Z,21.49
2022-09-10T12:13:11.295Z,21.40
2022-09-10T12:14:11.265Z,21.38
2022-09-10T12:15:11.635Z,21.31
2022-09-10T12:16:11.299Z,21.32
2022-09-10T12:17:11.222Z,21.49
2022-09-10T12:18:11.205Z,21.65
2022-09-10T12:19:14.995Z,21.61
2022-09-10T12:20:11.343Z,21.37
2022-09-10T12:21:11.224Z,21.37
2022-09-10T12:22:11.180Z,21.47
2022-09-10T12:23:11.344Z,21.56
2022-09-10T12:24:11.124Z,21.47
2022-09-10T12:25:11.424Z,21.54
2022-09-10T12:26:11.123Z,21.40
2022-09-10T12:27:11.106Z,21.47
2022-09-10T12:28:11.074Z,21.35
2022-09-10T12:29:11.064Z,21.34
2022-09-10T12:30:11.099Z,21.43
2022-09-10T12:31:11.255Z,21.52
2022-09-10T12:32:11.034Z,21.58
2022-09-10T12:33:11.022Z,21.67
2022-09-10T12:34:11.005Z,21.72
2022-09-10T12:35:11.308Z,21.67
2022-09-10T12:36:10.974Z,21.72
2022-09-10T12:37:10.988Z,21.61
2022-09-10T12:38:10.955Z,21.52
2022-09-10T12:39:10.941Z,21.61
2022-09-10T12:40:13.149Z,21.79
2022-09-10T12:41:11.101Z,21.94
2022-09-10T12:42:10.944Z,22.06
2022-09-10T12:43:10.884Z,22.18
2022-09-10T12:44:10.874Z,22.33
2022-09-10T12:45:10.904Z,22.35
2022-09-10T12:46:10.905Z,22.15
2022-09-10T12:47:10.847Z,22.10
2022-09-10T12:48:10.822Z,22.03
2022-09-10T12:49:10.812Z,21.90
2022-09-10T12:50:10.797Z,21.80
2022-09-10T12:51:11.233Z,21.82
2022-09-10T12:52:10.763Z,21.86